createdAt,value
2022-10-30T00:00:41.113Z,92.09
2022-10-30T00:03:11.847Z,92.14
2022-10-30T00:05:41.790Z,91.95
2022-10-30T00:08:10.579Z,92.22
2022-10-30T00:10:36.935Z,92.30
2022-10-30T00:13:03.345Z,92.21
2022-10-30T00:15:29.689Z,92.65
2022-10-30T00:17:56.404Z,92.96
2022-10-30T00:20:22.872Z,92.46
2022-10-30T00:22:49.182Z,92.60
2022-10-30T00:25:15.517Z,92.63
2022-10-30T00:27:41.853Z,93.16
2022-10-30T00:30:08.829Z,93.28
2022-10-30T00:32:35.151Z,93.43
2022-10-30T00:35:01.485Z,93.61
2022-10-30T00:37:27.784Z,93.86
2022-10-30T00:39:54.117Z,94.94
2022-10-30T00:42:20.580Z,94.70
2022-10-30T00:44:53.001Z,94.66
2022-10-30T00:47:29.108Z,95.35
2022-10-30T00:50:02.920Z,94.88
2022-10-30T00:52:33.534Z,94.84
2022-10-30T00:55:05.725Z,94.74
2022-10-30T00:57:32.842Z,94.67
2022-10-30T00:59:59.721Z,94.30
2022-10-30T01:02:26.853Z,94.51
2022-10-30T01:04:54.726Z,94.69
2022-10-30T01:07:21.139Z,94.86
2022-10-30T01:09:47.806Z,94.66
2022-10-30T01:12:15.468Z,95.03
2022-10-30T01:14:47.674Z,95.31
2022-10-30T01:17:35.008Z,95.28
2022-10-30T01:20:33.228Z,95.32
2022-10-30T01:23:31.091Z,96.17
2022-10-30T01:26:18.873Z,95.98
2022-10-30T01:29:06.234Z,96.18
2022-10-30T01:31:58.684Z,95.96
2022-10-30T01:34:39.501Z,96.11
2022-10-30T01:37:14.011Z,96.71
2022-10-30T01:39:41.265Z,96.83
2022-10-30T01:42:45.112Z,96.67
2022-10-30T01:45:23.578Z,96.85
2022-10-30T01:48:16.333Z,96.68
2022-10-30T01:51:07.599Z,96.84
2022-10-30T01:53:49.566Z,96.75
2022-10-30T01:56:33.789Z,97.44
2022-10-30T01:59:13.507Z,97.61
2022-10-30T02:01:40.162Z,98.44
2022-10-30T02:04:09.254Z,100.00
2022-10-30T02:06:36.664Z,100.00
2022-10-30T02:09:04.308Z,100.00
2022-10-30T02:11:33.726Z,100.00
2022-10-30T02:14:05.092Z,100.00
2022-10-30T02:16:35.371Z,100.00
2022-10-30T02:19:01.675Z,100.00
2022-10-30T02:21:28.015Z,100.00
2022-10-30T02:23:54.378Z,99.78
2022-10-30T02:26:20.820Z,99.47
2022-10-30T02:28:47.153Z,99.01
2022-10-30T02:31:13.520Z,98.83
2022-10-30T02:33:44.373Z,98.56
2022-10-30T02:36:10.678Z,98.35
2022-10-30T02:38:36.988Z,98.08
2022-10-30T02:41:03.295Z,98.33
2022-10-30T02:43:29.614Z,98.34
2022-10-30T02:45:55.900Z,97.92
2022-10-30T02:48:22.218Z,97.95
2022-10-30T02:50:48.560Z,98.13
2022-10-30T02:53:15.035Z,98.43
2022-10-30T02:55:41.417Z,98.81
2022-10-30T02:58:07.756Z,98.95
2022-10-30T03:00:34.085Z,100.00
2022-10-30T03:03:00.387Z,100.00
2022-10-30T03:05:26.691Z,99.77
2022-10-30T03:07:54.350Z,99.98
2022-10-30T03:10:20.702Z,99.95
2022-10-30T03:12:47.028Z,100.00
2022-10-30T03:15:13.346Z,100.00
2022-10-30T03:17:42.591Z,100.00
2022-10-30T03:20:09.533Z,100.00
2022-10-30T03:22:35.832Z,100.00
2022-10-30T03:25:02.149Z,100.00
2022-10-30T03:27:28.450Z,100.00
2022-10-30T03:29:54.759Z,100.00
2022-10-30T03:32:21.084Z,100.00
2022-10-30T03:34:47.453Z,99.91
2022-10-30T03:37:13.778Z,100.00
2022-10-30T03:39:40.076Z,99.95
2022-10-30T03:42:06.547Z,100.00
2022-10-30T03:44:32.866Z,100.00
2022-10-30T03:46:59.215Z,100.00
2022-10-30T03:49:25.545Z,100.00
2022-10-30T03:51:51.855Z,100.00
2022-10-30T03:54:18.177Z,100.00
2022-10-30T03:56:45.001Z,100.00
2022-10-30T03:59:11.360Z,100.00
2022-10-30T04:01:39.032Z,100.00
2022-10-30T04:04:05.484Z,100.00
2022-10-30T04:06:31.824Z,100.00
2022-10-30T04:08:58.128Z,100.00
2022-10-30T04:11:24.592Z,100.00
2022-10-30T04:13:50.981Z,100.00
2022-10-30T04:16:17.306Z,100.00
2022-10-30T04:18:43.671Z,100.00
2022-10-30T04:21:09.994Z,100.00
2022-10-30T04:23:36.320Z,100.00
2022-10-30T04:26:02.649Z,100.00
2022-10-30T04:28:28.962Z,100.00
2022-10-30T04:30:56.355Z,100.00
2022-10-30T04:33:22.655Z,100.00
2022-10-30T04:35:48.962Z,100.00
2022-10-30T04:38:16.499Z,100.00
2022-10-30T04:40:43.932Z,100.00
2022-10-30T04:43:11.321Z,100.00
2022-10-30T04:45:38.072Z,100.00
2022-10-30T04:48:08.405Z,100.00
2022-10-30T04:50:35.401Z,100.00
2022-10-30T04:53:07.370Z,100.00
2022-10-30T04:55:34.201Z,100.00
2022-10-30T04:58:01.794Z,100.00
2022-10-30T05:00:28.814Z,100.00
2022-10-30T05:02:55.123Z,100.00
2022-10-30T05:05:21.538Z,100.00
2022-10-30T05:07:47.895Z,100.00
2022-10-30T05:10:15.300Z,100.00
2022-10-30T05:12:42.908Z,100.00
2022-10-30T05:15:09.944Z,100.00
2022-10-30T05:17:36.254Z,100.00
2022-10-30T05:20:02.656Z,100.00
2022-10-30T05:22:28.959Z,100.00
2022-10-30T05:24:55.297Z,100.00
2022-10-30T05:27:21.804Z,100.00
2022-10-30T05:29:48.097Z,100.00
2022-10-30T05:34:45.646Z,100.00
2022-10-30T05:37:12.047Z,100.00
2022-10-30T05:39:38.349Z,100.00
2022-10-30T05:42:06.619Z,100.00
2022-10-30T05:44:59.213Z,100.00
2022-10-30T05:47:21.191Z,100.00
2022-10-30T05:49:47.517Z,100.00
2022-10-30T05:52:13.940Z,100.00
2022-10-30T05:54:40.234Z,100.00
2022-10-30T05:57:06.545Z,100.00
2022-10-30T05:59:32.877Z,100.00
2022-10-30T06:01:59.270Z,100.00
2022-10-30T06:04:25.618Z,100.00
2022-10-30T06:06:51.924Z,100.00
2022-10-30T06:09:18.243Z,100.00
2022-10-30T06:11:44.606Z,100.00
2022-10-30T06:14:10.901Z,100.00
2022-10-30T06:16:37.222Z,100.00
2022-10-30T06:19:03.537Z,100.00
2022-10-30T06:21:29.832Z,100.00
2022-10-30T06:23:56.160Z,100.00
2022-10-30T06:26:22.509Z,100.00
2022-10-30T06:28:48.819Z,100.00
2022-10-30T06:31:15.176Z,100.00
2022-10-30T06:33:41.524Z,100.00
2022-10-30T06:36:08.005Z,100.00
2022-10-30T06:38:34.334Z,100.00
2022-10-30T06:41:00.671Z,100.00
2022-10-30T06:43:26.998Z,100.00
2022-10-30T06:45:53.366Z,100.00
2022-10-30T06:48:19.826Z,100.00
2022-10-30T06:50:46.124Z,100.00
2022-10-30T06:53:12.424Z,100.00
2022-10-30T06:55:38.736Z,100.00
2022-10-30T06:58:05.150Z,100.00
2022-10-30T07:00:31.473Z,100.00
2022-10-30T07:02:59.703Z,100.00
2022-10-30T07:05:26.881Z,100.00
2022-10-30T07:07:56.148Z,100.00
2022-10-30T07:10:22.478Z,100.00
2022-10-30T07:12:53.863Z,100.00
2022-10-30T07:15:20.181Z,100.00
2022-10-30T07:18:01.088Z,100.00
2022-10-30T07:20:30.989Z,100.00
2022-10-30T07:22:57.347Z,100.00
2022-10-30T07:25:23.916Z,100.00
2022-10-30T07:27:52.235Z,100.00
2022-10-30T07:30:20.837Z,100.00
2022-10-30T07:33:06.554Z,100.00
2022-10-30T07:35:35.079Z,100.00
2022-10-30T07:38:06.397Z,100.00
2022-10-30T07:40:33.681Z,100.00
2022-10-30T07:43:02.429Z,100.00
2022-10-30T07:45:29.456Z,100.00
2022-10-30T07:47:56.467Z,100.00
2022-10-30T07:50:23.679Z,100.00
2022-10-30T07:52:50.188Z,100.00
2022-10-30T07:55:16.592Z,100.00
2022-10-30T07:57:43.209Z,100.00
2022-10-30T08:00:12.451Z,100.00
2022-10-30T08:02:39.209Z,100.00
2022-10-30T08:05:06.501Z,100.00
2022-10-30T08:07:34.795Z,100.00
2022-10-30T08:10:01.138Z,100.00
2022-10-30T08:12:28.102Z,100.00
2022-10-30T08:14:54.692Z,100.00
2022-10-30T08:17:21.580Z,100.00
2022-10-30T08:19:47.908Z,100.00
2022-10-30T08:22:14.498Z,100.00
2022-10-30T08:24:40.836Z,100.00
2022-10-30T08:27:07.181Z,100.00
2022-10-30T08:29:33.604Z,100.00
2022-10-30T08:32:00.052Z,100.00
2022-10-30T08:34:26.405Z,100.00
2022-10-30T08:36:53.634Z,100.00
2022-10-30T08:39:20.673Z,100.00
2022-10-30T08:41:46.970Z,100.00
2022-10-30T08:44:13.292Z,100.00
2022-10-30T08:46:39.592Z,100.00
2022-10-30T08:49:05.898Z,100.00
2022-10-30T08:51:33.588Z,100.00
2022-10-30T08:54:00.191Z,100.00
2022-10-30T08:56:26.998Z,98.76
2022-10-30T08:58:53.432Z,96.88
2022-10-30T09:01:19.852Z,97.90
2022-10-30T09:03:46.225Z,97.60
2022-10-30T09:06:12.516Z,93.26
2022-10-30T09:08:38.879Z,95.85
2022-10-30T09:11:05.496Z,90.60
2022-10-30T09:13:31.824Z,94.24
2022-10-30T09:16:02.316Z,93.32
2022-10-30T09:18:29.086Z,92.25
2022-10-30T09:20:55.399Z,90.81
2022-10-30T09:23:21.899Z,85.98
2022-10-30T09:25:48.214Z,87.24
2022-10-30T09:28:14.553Z,81.39
2022-10-30T09:30:40.993Z,83.21
2022-10-30T09:33:07.428Z,83.53
2022-10-30T09:35:33.799Z,81.88
2022-10-30T09:38:00.407Z,83.36
2022-10-30T09:40:45.728Z,82.88
2022-10-30T09:43:45.131Z,79.18
2022-10-30T09:46:23.529Z,79.47
2022-10-30T09:51:55.531Z,82.71
2022-10-30T09:54:30.713Z,81.70
2022-10-30T09:57:18.696Z,79.98
2022-10-30T10:00:05.963Z,79.54
2022-10-30T10:02:36.645Z,81.04
2022-10-30T10:05:30.601Z,80.24
2022-10-30T10:08:02.970Z,80.00
2022-10-30T10:10:42.850Z,80.13
2022-10-30T10:13:35.102Z,79.86
2022-10-30T10:16:16.175Z,79.04
2022-10-30T10:18:48.330Z,79.05
2022-10-30T10:21:24.569Z,80.36
2022-10-30T10:23:54.357Z,80.70
2022-10-30T10:26:30.486Z,80.24
2022-10-30T10:29:28.781Z,79.11
2022-10-30T10:32:17.593Z,79.68
2022-10-30T10:35:13.473Z,77.55
2022-10-30T10:38:17.182Z,76.37
2022-10-30T10:41:02.112Z,77.63
2022-10-30T10:43:41.794Z,77.19
2022-10-30T10:46:26.647Z,74.61
2022-10-30T10:49:40.114Z,74.51
2022-10-30T10:52:09.455Z,75.02
2022-10-30T10:54:41.984Z,76.29
2022-10-30T10:57:16.822Z,75.43
2022-10-30T10:59:49.991Z,76.66
2022-10-30T11:02:19.435Z,76.50
2022-10-30T11:04:50.329Z,75.27
2022-10-30T11:07:32.142Z,76.13
2022-10-30T11:09:58.973Z,76.80
2022-10-30T11:12:32.297Z,76.00
2022-10-30T11:15:19.763Z,76.47
2022-10-30T11:17:58.440Z,75.55
2022-10-30T11:20:40.224Z,76.16
2022-10-30T11:23:42.139Z,74.59
2022-10-30T11:26:33.279Z,75.61
2022-10-30T11:29:12.978Z,74.76
2022-10-30T11:31:42.046Z,76.41
2022-10-30T11:34:17.220Z,75.60
2022-10-30T11:36:54.081Z,74.77
2022-10-30T11:39:29.126Z,74.93
2022-10-30T11:42:18.569Z,76.12
2022-10-30T11:44:51.694Z,76.33
2022-10-30T11:50:15.633Z,76.35
2022-10-30T11:52:43.884Z,76.45
2022-10-30T11:55:23.128Z,77.94
2022-10-30T11:57:52.551Z,77.76
2022-10-30T12:00:22.428Z,77.43
2022-10-30T12:02:51.519Z,77.37
2022-10-30T12:05:26.954Z,77.98
2022-10-30T12:08:09.039Z,76.78
2022-10-30T12:10:43.964Z,75.35
2022-10-30T12:13:18.985Z,74.97
2022-10-30T12:15:48.409Z,74.67
2022-10-30T12:20:58.851Z,73.49
2022-10-30T12:23:28.122Z,72.36
2022-10-30T12:25:57.431Z,73.87
2022-10-30T12:28:27.029Z,73.13
2022-10-30T12:31:18.384Z,73.91
2022-10-30T12:34:17.897Z,74.52
2022-10-30T12:36:55.055Z,75.53
2022-10-30T12:39:28.779Z,76.07
2022-10-30T12:42:08.646Z,75.17
2022-10-30T12:44:44.087Z,76.62
2022-10-30T12:47:25.488Z,77.04
2022-10-30T12:49:58.737Z,76.62
2022-10-30T12:52:56.282Z,78.15
2022-10-30T12:55:30.126Z,77.78
2022-10-30T12:58:14.165Z,76.84
2022-10-30T13:01:01.294Z,77.65
2022-10-30T13:03:30.418Z,77.66
2022-10-30T13:06:18.909Z,77.91
2022-10-30T13:09:23.795Z,77.87
2022-10-30T13:12:03.082Z,77.70
2022-10-30T13:14:42.260Z,77.25
2022-10-30T13:17:12.850Z,76.92
2022-10-30T13:19:44.880Z,77.72
2022-10-30T13:22:20.158Z,78.21
2022-10-30T13:24:59.263Z,78.81
2022-10-30T13:28:01.505Z,79.27
2022-10-30T13:30:34.068Z,79.72
2022-10-30T13:33:25.830Z,80.32
2022-10-30T13:36:15.309Z,80.77
2022-10-30T13:38:50.268Z,81.04
2022-10-30T13:41:31.147Z,82.21
2022-10-30T13:44:03.353Z,81.13
2022-10-30T13:46:40.823Z,81.08
2022-10-30T13:49:27.989Z,80.77
2022-10-30T13:52:04.570Z,80.26
2022-10-30T13:54:35.860Z,81.04
2022-10-30T13:57:14.316Z,80.81
2022-10-30T13:59:46.529Z,80.74
2022-10-30T14:02:25.582Z,79.82
2022-10-30T14:05:12.317Z,80.85
2022-10-30T14:07:56.670Z,79.89
2022-10-30T14:10:24.640Z,79.19
2022-10-30T14:12:56.874Z,79.97
2022-10-30T14:15:34.608Z,79.26
2022-10-30T14:18:13.100Z,79.90
2022-10-30T14:20:45.231Z,80.47
2022-10-30T14:23:15.221Z,80.20
2022-10-30T14:25:42.047Z,80.38
2022-10-30T14:28:21.035Z,80.05
2022-10-30T14:30:47.529Z,80.97
2022-10-30T14:33:52.208Z,81.43
2022-10-30T14:36:26.174Z,81.70
2022-10-30T14:39:00.017Z,82.41
2022-10-30T14:41:40.533Z,82.70
2022-10-30T14:44:24.780Z,82.85
2022-10-30T14:47:06.403Z,83.09
2022-10-30T14:49:41.964Z,82.87
2022-10-30T14:52:18.829Z,83.20
2022-10-30T14:54:59.729Z,83.60
2022-10-30T14:58:06.080Z,83.92
2022-10-30T15:00:35.384Z,84.58
2022-10-30T15:03:13.737Z,84.69
2022-10-30T15:05:59.396Z,85.44
2022-10-30T15:08:44.204Z,85.96
2022-10-30T15:11:28.578Z,85.76
2022-10-30T15:13:58.993Z,86.17
2022-10-30T15:16:28.144Z,86.00
2022-10-30T15:19:01.913Z,86.46
2022-10-30T15:21:31.099Z,86.24
2022-10-30T15:23:59.311Z,86.11
2022-10-30T15:26:32.292Z,86.30
2022-10-30T15:28:59.020Z,86.16
2022-10-30T15:31:27.108Z,86.28
2022-10-30T15:33:54.316Z,86.17
2022-10-30T15:36:23.257Z,86.26
2022-10-30T15:39:12.421Z,86.47
2022-10-30T15:41:44.620Z,86.71
2022-10-30T15:44:14.082Z,86.91
2022-10-30T15:46:43.841Z,86.76
2022-10-30T15:49:19.319Z,86.60
2022-10-30T15:51:47.136Z,86.89
2022-10-30T15:54:17.793Z,87.11
2022-10-30T15:57:15.843Z,87.25
2022-10-30T15:59:32.753Z,87.13
2022-10-30T16:01:59.158Z,87.09
2022-10-30T16:04:31.330Z,87.17
2022-10-30T16:07:00.231Z,87.09
2022-10-30T16:09:28.194Z,87.24
2022-10-30T16:11:58.250Z,87.27
2022-10-30T16:14:28.226Z,87.25
2022-10-30T16:16:54.944Z,87.36
2022-10-30T16:19:28.948Z,87.25
2022-10-30T16:21:57.496Z,87.41
2022-10-30T16:24:30.906Z,87.64
2022-10-30T16:27:15.304Z,87.91
2022-10-30T16:29:42.984Z,88.56
2022-10-30T16:32:14.523Z,88.86
2022-10-30T16:34:42.503Z,89.72
2022-10-30T16:37:16.296Z,89.90
2022-10-30T16:39:43.771Z,90.31
2022-10-30T16:42:21.721Z,90.78
2022-10-30T16:44:48.034Z,91.16
2022-10-30T16:47:17.187Z,91.02
2022-10-30T16:49:48.627Z,90.98
2022-10-30T16:52:17.100Z,90.95
2022-10-30T16:54:58.662Z,91.49
2022-10-30T16:57:31.222Z,91.52
2022-10-30T17:00:00.537Z,91.12
2022-10-30T17:02:29.680Z,91.29
2022-10-30T17:05:10.744Z,92.21
2022-10-30T17:07:38.763Z,91.37
2022-10-30T17:10:32.751Z,91.77
2022-10-30T17:13:31.332Z,91.71
2022-10-30T17:15:58.484Z,92.21
2022-10-30T17:18:31.137Z,92.81
2022-10-30T17:21:00.104Z,93.03
2022-10-30T17:23:26.463Z,93.08
2022-10-30T17:25:54.870Z,93.91
2022-10-30T17:28:29.252Z,94.36
2022-10-30T17:30:55.638Z,94.42
2022-10-30T17:33:34.882Z,94.82
2022-10-30T17:36:05.893Z,94.56
2022-10-30T17:38:32.813Z,94.97
2022-10-30T17:41:00.320Z,95.13
2022-10-30T17:43:30.700Z,95.33
2022-10-30T17:45:57.454Z,96.30
2022-10-30T17:48:27.146Z,96.20
2022-10-30T17:50:53.956Z,96.40
2022-10-30T17:53:23.249Z,96.83
2022-10-30T17:56:13.267Z,97.36
2022-10-30T17:58:39.573Z,98.06
2022-10-30T18:01:06.152Z,97.94
2022-10-30T18:03:32.505Z,97.99
2022-10-30T18:06:01.885Z,97.80
2022-10-30T18:08:28.222Z,97.64
2022-10-30T18:10:54.561Z,97.66
2022-10-30T18:13:20.909Z,97.68
2022-10-30T18:15:57.629Z,97.62
2022-10-30T18:18:24.266Z,97.86
2022-10-30T18:20:50.564Z,97.58
2022-10-30T18:23:51.976Z,97.23
2022-10-30T18:26:15.801Z,96.89
2022-10-30T18:28:42.309Z,96.87
2022-10-30T18:31:11.865Z,96.98
2022-10-30T18:33:38.576Z,96.75
2022-10-30T18:36:11.799Z,97.44
2022-10-30T18:38:38.079Z,97.84
2022-10-30T18:41:04.825Z,97.71
2022-10-30T18:43:31.284Z,98.27
2022-10-30T18:45:57.633Z,98.71
2022-10-30T18:48:23.961Z,98.81
2022-10-30T18:50:50.284Z,98.69
2022-10-30T18:53:17.880Z,98.79
2022-10-30T18:55:45.115Z,99.16
2022-10-30T18:58:11.724Z,98.95
2022-10-30T19:00:58.263Z,99.04
2022-10-30T19:03:25.659Z,98.84
2022-10-30T19:05:52.009Z,98.74
2022-10-30T19:08:18.325Z,98.49
2022-10-30T19:10:46.367Z,98.39
2022-10-30T19:13:19.117Z,98.72
2022-10-30T19:16:00.180Z,98.50
2022-10-30T19:18:27.991Z,98.35
2022-10-30T19:21:15.495Z,98.11
2022-10-30T19:23:40.875Z,98.21
2022-10-30T19:26:07.245Z,98.45
2022-10-30T19:28:33.625Z,98.52
2022-10-30T19:30:59.947Z,98.64
2022-10-30T19:33:26.403Z,98.43
2022-10-30T19:35:54.663Z,98.42
2022-10-30T19:38:22.839Z,98.42
2022-10-30T19:40:49.590Z,98.84
2022-10-30T19:43:16.018Z,99.07
2022-10-30T19:45:42.324Z,98.64
2022-10-30T19:48:20.743Z,99.20
2022-10-30T19:50:51.173Z,99.12
2022-10-30T19:53:17.559Z,98.72
2022-10-30T19:55:44.269Z,98.53
2022-10-30T19:58:13.897Z,98.17
2022-10-30T20:00:42.585Z,97.53
2022-10-30T20:03:11.853Z,96.92
2022-10-30T20:05:44.436Z,97.57
2022-10-30T20:08:12.355Z,97.08
2022-10-30T20:10:41.332Z,97.10
2022-10-30T20:13:09.982Z,97.49
2022-10-30T20:15:36.836Z,98.29
2022-10-30T20:18:10.418Z,98.48
2022-10-30T20:20:38.792Z,98.62
2022-10-30T20:23:05.091Z,98.51
2022-10-30T20:25:31.423Z,98.56
2022-10-30T20:28:06.629Z,98.56
2022-10-30T20:30:33.585Z,98.78
2022-10-30T20:33:00.263Z,98.78
2022-10-30T20:35:27.128Z,98.68
2022-10-30T20:38:01.589Z,98.62
2022-10-30T20:40:29.101Z,99.36
2022-10-30T20:43:00.007Z,100.00
2022-10-30T20:45:29.209Z,100.00
2022-10-30T20:47:55.554Z,100.00
2022-10-30T20:50:21.938Z,100.00
2022-10-30T20:52:48.262Z,100.00
2022-10-30T20:55:14.786Z,100.00
2022-10-30T20:57:41.204Z,100.00
2022-10-30T21:00:10.921Z,100.00
2022-10-30T21:02:37.312Z,100.00
2022-10-30T21:05:17.341Z,100.00
2022-10-30T21:07:50.305Z,100.00
2022-10-30T21:10:16.821Z,100.00
2022-10-30T21:12:43.250Z,100.00
2022-10-30T21:15:09.845Z,100.00
2022-10-30T21:17:36.275Z,100.00
2022-10-30T21:20:02.736Z,100.00
2022-10-30T21:22:29.069Z,100.00
2022-10-30T21:24:55.388Z,100.00
2022-10-30T21:27:21.741Z,100.00
2022-10-30T21:29:48.065Z,100.00
2022-10-30T21:32:14.425Z,100.00
2022-10-30T21:34:40.787Z,100.00
2022-10-30T21:37:07.122Z,100.00
2022-10-30T21:39:33.450Z,100.00
2022-10-30T21:41:59.914Z,99.88
2022-10-30T21:44:26.223Z,99.76
2022-10-30T21:46:52.553Z,99.62
2022-10-30T21:49:18.902Z,99.85
2022-10-30T21:51:46.028Z,99.96
2022-10-30T21:54:12.404Z,100.00
2022-10-30T21:56:38.756Z,99.89
2022-10-30T21:59:05.203Z,99.55
2022-10-30T22:01:34.969Z,99.46
2022-10-30T22:04:03.623Z,99.57
2022-10-30T22:06:30.631Z,99.48
2022-10-30T22:08:57.894Z,99.26
2022-10-30T22:11:27.454Z,99.24
2022-10-30T22:13:56.232Z,98.89
2022-10-30T22:16:22.989Z,98.98
2022-10-30T22:18:49.331Z,99.40
2022-10-30T22:21:15.903Z,99.50
2022-10-30T22:23:42.973Z,99.39
2022-10-30T22:26:15.547Z,100.00
2022-10-30T22:28:43.089Z,100.00
2022-10-30T22:31:13.300Z,100.00
2022-10-30T22:33:40.146Z,99.90
2022-10-30T22:36:30.908Z,100.00
2022-10-30T22:39:06.795Z,99.95
2022-10-30T22:41:37.332Z,100.00
2022-10-30T22:44:05.475Z,100.00
2022-10-30T22:46:31.818Z,100.00
2022-10-30T22:48:58.820Z,100.00
2022-10-30T22:51:25.724Z,100.00
2022-10-30T22:53:57.918Z,100.00
2022-10-30T22:56:27.361Z,100.00
2022-10-30T22:58:54.530Z,100.00
2022-10-30T23:01:29.755Z,100.00
2022-10-30T23:03:58.239Z,100.00
2022-10-30T23:06:25.686Z,100.00
2022-10-30T23:08:53.939Z,100.00
2022-10-30T23:11:20.562Z,100.00
2022-10-30T23:13:47.159Z,100.00
2022-10-30T23:16:16.796Z,100.00
2022-10-30T23:18:44.097Z,100.00
2022-10-30T23:21:13.916Z,100.00
2022-10-30T23:23:41.615Z,100.00
2022-10-30T23:26:17.081Z,100.00
2022-10-30T23:28:44.429Z,100.00
2022-10-30T23:31:18.605Z,100.00
2022-10-30T23:33:53.302Z,100.00
2022-10-30T23:36:19.839Z,100.00
2022-10-30T23:38:53.362Z,100.00
2022-10-30T23:41:24.751Z,100.00
2022-10-30T23:43:55.059Z,100.00
2022-10-30T23:46:21.768Z,100.00
2022-10-30T23:48:49.064Z,100.00
2022-10-30T23:51:15.641Z,100.00
2022-10-30T23:53:41.935Z,100.00
2022-10-30T23:56:08.414Z,100.00
2022-10-30T23:58:34.850Z,100.00
